sensor_id;sensor_type;location;lat;lon;timestamp;temperature;humidity
65637;DHT22;52327;42.622;23.316;2024-01-10T00:01:46;-3.66;88.86
65637;DHT22;52327;42.622;23.316;2024-01-10T00:04:11;-3.59;88.40
65637;DHT22;52327;42.622;23.316;2024-01-10T00:06:37;-3.70;88.36
65637;DHT22;52327;42.622;23.316;2024-01-10T00:09:02;-3.71;88.73
65637;DHT22;52327;42.622;23.316;2024-01-10T00:11:27;-3.73;87.99
65637;DHT22;52327;42.622;23.316;2024-01-10T00:13:53;-3.74;88.06
65637;DHT22;52327;42.622;23.316;2024-01-10T00:16:25;-3.79;88.84
65637;DHT22;52327;42.622;23.316;2024-01-10T00:18:50;-3.79;86.28
65637;DHT22;52327;42.622;23.316;2024-01-10T00:21:16;-3.71;87.38
65637;DHT22;52327;42.622;23.316;2024-01-10T00:23:41;-3.66;87.73
65637;DHT22;52327;42.622;23.316;2024-01-10T00:26:07;-3.60;87.72
65637;DHT22;52327;42.622;23.316;2024-01-10T00:28:32;-3.79;88.23
65637;DHT22;52327;42.622;23.316;2024-01-10T00:31:00;-3.80;89.04
65637;DHT22;52327;42.622;23.316;2024-01-10T00:33:26;-3.69;90.08
65637;DHT22;52327;42.622;23.316;2024-01-10T00:35:51;-3.55;89.70
65637;DHT22;52327;42.622;23.316;2024-01-10T00:38:17;-3.46;89.68
65637;DHT22;52327;42.622;23.316;2024-01-10T00:40:42;-3.43;89.31
65637;DHT22;52327;42.622;23.316;2024-01-10T00:43:08;-3.38;87.88
65637;DHT22;52327;42.622;23.316;2024-01-10T00:45:33;-3.52;88.54
65637;DHT22;52327;42.622;23.316;2024-01-10T00:47:59;-3.53;89.24
65637;DHT22;52327;42.622;23.316;2024-01-10T00:50:25;-3.43;86.72
65637;DHT22;52327;42.622;23.316;2024-01-10T00:52:53;-3.63;87.63
65637;DHT22;52327;42.622;23.316;2024-01-10T00:55:19;-3.70;88.64
65637;DHT22;52327;42.622;23.316;2024-01-10T00:57:44;-3.71;89.43
65637;DHT22;52327;42.622;23.316;2024-01-10T01:00:10;-3.77;88.71
65637;DHT22;52327;42.622;23.316;2024-01-10T01:02:36;-3.89;88.72
65637;DHT22;52327;42.622;23.316;2024-01-10T01:05:05;-3.90;89.11
65637;DHT22;52327;42.622;23.316;2024-01-10T01:07:35;-3.83;84.96
65637;DHT22;52327;42.622;23.316;2024-01-10T01:10:05;-3.86;86.70
65637;DHT22;52327;42.622;23.316;2024-01-10T01:12:31;-4.01;88.11
65637;DHT22;52327;42.622;23.316;2024-01-10T01:14:56;-4.01;88.76
65637;DHT22;52327;42.622;23.316;2024-01-10T01:17:25;-3.90;89.13
65637;DHT22;52327;42.622;23.316;2024-01-10T01:19:50;-3.66;87.78
65637;DHT22;52327;42.622;23.316;2024-01-10T01:22:15;-3.71;86.43
65637;DHT22;52327;42.622;23.316;2024-01-10T01:24:41;-3.76;86.71
65637;DHT22;52327;42.622;23.316;2024-01-10T01:27:06;-3.84;84.46
65637;DHT22;52327;42.622;23.316;2024-01-10T01:29:32;-3.86;86.05
65637;DHT22;52327;42.622;23.316;2024-01-10T01:31:57;-3.87;85.83
65637;DHT22;52327;42.622;23.316;2024-01-10T01:34:23;-4.05;87.53
65637;DHT22;52327;42.622;23.316;2024-01-10T01:36:48;-4.19;87.65
65637;DHT22;52327;42.622;23.316;2024-01-10T01:39:16;-4.14;89.08
65637;DHT22;52327;42.622;23.316;2024-01-10T01:41:41;-3.91;89.54
65637;DHT22;52327;42.622;23.316;2024-01-10T01:44:07;-3.71;87.21
65637;DHT22;52327;42.622;23.316;2024-01-10T01:46:32;-3.79;88.32
65637;DHT22;52327;42.622;23.316;2024-01-10T01:48:58;-3.77;88.01
65637;DHT22;52327;42.622;23.316;2024-01-10T01:51:26;-3.86;87.55
65637;DHT22;52327;42.622;23.316;2024-01-10T01:53:53;-3.98;87.85
65637;DHT22;52327;42.622;23.316;2024-01-10T01:56:19;-3.98;88.04
65637;DHT22;52327;42.622;23.316;2024-01-10T01:58:45;-3.86;87.98
65637;DHT22;52327;42.622;23.316;2024-01-10T02:01:11;-3.90;88.36
65637;DHT22;52327;42.622;23.316;2024-01-10T02:03:37;-3.84;88.80
65637;DHT22;52327;42.622;23.316;2024-01-10T02:06:06;-3.60;87.76
65637;DHT22;52327;42.622;23.316;2024-01-10T02:08:33;-3.56;85.12
65637;DHT22;52327;42.622;23.316;2024-01-10T02:11:02;-3.69;82.62
65637;DHT22;52327;42.622;23.316;2024-01-10T02:13:28;-3.70;84.05
65637;DHT22;52327;42.622;23.316;2024-01-10T02:15:55;-3.83;84.94
65637;DHT22;52327;42.622;23.316;2024-01-10T02:18:23;-3.91;85.26
65637;DHT22;52327;42.622;23.316;2024-01-10T02:20:49;-4.10;86.26
65637;DHT22;52327;42.622;23.316;2024-01-10T02:23:15;-4.04;85.81
65637;DHT22;52327;42.622;23.316;2024-01-10T02:25:41;-4.01;86.76
65637;DHT22;52327;42.622;23.316;2024-01-10T02:28:07;-3.93;85.54
65637;DHT22;52327;42.622;23.316;2024-01-10T02:30:33;-3.91;85.96
65637;DHT22;52327;42.622;23.316;2024-01-10T02:32:58;-3.97;86.54
65637;DHT22;52327;42.622;23.316;2024-01-10T02:35:24;-4.00;84.77
65637;DHT22;52327;42.622;23.316;2024-01-10T02:37:49;-3.97;87.46
65637;DHT22;52327;42.622;23.316;2024-01-10T02:40:17;-3.98;88.37
65637;DHT22;52327;42.622;23.316;2024-01-10T02:42:42;-3.94;88.56
65637;DHT22;52327;42.622;23.316;2024-01-10T02:45:08;-3.87;88.88
65637;DHT22;52327;42.622;23.316;2024-01-10T02:47:34;-3.91;88.39
65637;DHT22;52327;42.622;23.316;2024-01-10T02:50:00;-3.91;89.10
65637;DHT22;52327;42.622;23.316;2024-01-10T02:52:25;-3.83;88.96
65637;DHT22;52327;42.622;23.316;2024-01-10T02:54:50;-3.84;87.99
65637;DHT22;52327;42.622;23.316;2024-01-10T02:57:16;-3.90;88.26
65637;DHT22;52327;42.622;23.316;2024-01-10T02:59:41;-3.84;88.77
65637;DHT22;52327;42.622;23.316;2024-01-10T03:02:07;-3.89;88.16
65637;DHT22;52327;42.622;23.316;2024-01-10T03:04:35;-3.95;88.65
65637;DHT22;52327;42.622;23.316;2024-01-10T03:07:01;-4.01;88.45
65637;DHT22;52327;42.622;23.316;2024-01-10T03:09:27;-4.00;88.38
65637;DHT22;52327;42.622;23.316;2024-01-10T03:11:52;-4.01;88.46
65637;DHT22;52327;42.622;23.316;2024-01-10T03:14:20;-3.98;88.49
65637;DHT22;52327;42.622;23.316;2024-01-10T03:16:45;-3.98;88.96
65637;DHT22;52327;42.622;23.316;2024-01-10T03:19:11;-3.93;88.95
65637;DHT22;52327;42.622;23.316;2024-01-10T03:21:36;-3.81;89.47
65637;DHT22;52327;42.622;23.316;2024-01-10T03:24:05;-3.71;89.73
65637;DHT22;52327;42.622;23.316;2024-01-10T03:26:30;-3.67;88.38
65637;DHT22;52327;42.622;23.316;2024-01-10T03:28:56;-3.69;89.02
65637;DHT22;52327;42.622;23.316;2024-01-10T03:31:22;-3.57;89.38
65637;DHT22;52327;42.622;23.316;2024-01-10T03:33:48;-3.52;89.17
65637;DHT22;52327;42.622;23.316;2024-01-10T03:36:17;-3.46;88.67
65637;DHT22;52327;42.622;23.316;2024-01-10T03:38:44;-3.50;88.12
65637;DHT22;52327;42.622;23.316;2024-01-10T03:41:19;-3.53;88.69
65637;DHT22;52327;42.622;23.316;2024-01-10T03:43:45;-3.40;88.86
65637;DHT22;52327;42.622;23.316;2024-01-10T03:46:12;-3.29;88.69
65637;DHT22;52327;42.622;23.316;2024-01-10T03:48:40;-3.23;89.11
65637;DHT22;52327;42.622;23.316;2024-01-10T03:51:13;-3.19;88.26
65637;DHT22;52327;42.622;23.316;2024-01-10T03:53:39;-3.19;88.24
65637;DHT22;52327;42.622;23.316;2024-01-10T03:56:06;-3.36;87.88
65637;DHT22;52327;42.622;23.316;2024-01-10T03:58:31;-3.45;88.42
65637;DHT22;52327;42.622;23.316;2024-01-10T04:00:57;-3.22;85.91
65637;DHT22;52327;42.622;23.316;2024-01-10T04:03:22;-3.55;86.82
65637;DHT22;52327;42.622;23.316;2024-01-10T04:05:48;-3.64;87.79
65637;DHT22;52327;42.622;23.316;2024-01-10T04:08:21;-3.57;88.34
65637;DHT22;52327;42.622;23.316;2024-01-10T04:10:46;-3.53;88.67
65637;DHT22;52327;42.622;23.316;2024-01-10T04:13:14;-3.46;88.96
65637;DHT22;52327;42.622;23.316;2024-01-10T04:15:42;-3.40;88.61
65637;DHT22;52327;42.622;23.316;2024-01-10T04:18:08;-3.35;88.87
65637;DHT22;52327;42.622;23.316;2024-01-10T04:20:36;-3.29;88.56
65637;DHT22;52327;42.622;23.316;2024-01-10T04:23:07;-3.28;88.76
65637;DHT22;52327;42.622;23.316;2024-01-10T04:25:35;-3.25;88.72
65637;DHT22;52327;42.622;23.316;2024-01-10T04:28:01;-3.22;88.74
65637;DHT22;52327;42.622;23.316;2024-01-10T04:30:27;-3.20;88.23
65637;DHT22;52327;42.622;23.316;2024-01-10T04:32:52;-3.35;87.49
65637;DHT22;52327;42.622;23.316;2024-01-10T04:35:18;-3.39;88.44
65637;DHT22;52327;42.622;23.316;2024-01-10T04:37:43;-3.38;87.41
65637;DHT22;52327;42.622;23.316;2024-01-10T04:40:09;-3.62;86.89
65637;DHT22;52327;42.622;23.316;2024-01-10T04:42:34;-3.77;86.63
65637;DHT22;52327;42.622;23.316;2024-01-10T04:45:00;-3.86;87.77
65637;DHT22;52327;42.622;23.316;2024-01-10T04:47:25;-3.83;88.27
65637;DHT22;52327;42.622;23.316;2024-01-10T04:49:51;-3.73;88.37
65637;DHT22;52327;42.622;23.316;2024-01-10T04:52:16;-3.74;87.79
65637;DHT22;52327;42.622;23.316;2024-01-10T04:54:42;-3.77;88.15
65637;DHT22;52327;42.622;23.316;2024-01-10T04:57:07;-3.69;88.17
65637;DHT22;52327;42.622;23.316;2024-01-10T04:59:33;-3.59;88.52
65637;DHT22;52327;42.622;23.316;2024-01-10T05:01:58;-3.53;88.31
65637;DHT22;52327;42.622;23.316;2024-01-10T05:04:24;-3.50;88.32
65637;DHT22;52327;42.622;23.316;2024-01-10T05:06:52;-3.49;88.52
65637;DHT22;52327;42.622;23.316;2024-01-10T05:09:18;-3.40;88.69
65637;DHT22;52327;42.622;23.316;2024-01-10T05:11:44;-3.38;88.30
65637;DHT22;52327;42.622;23.316;2024-01-10T05:14:12;-3.39;87.20
65637;DHT22;52327;42.622;23.316;2024-01-10T05:16:38;-3.49;87.59
65637;DHT22;52327;42.622;23.316;2024-01-10T05:19:03;-3.55;86.89
65637;DHT22;52327;42.622;23.316;2024-01-10T05:21:30;-3.60;87.30
65637;DHT22;52327;42.622;23.316;2024-01-10T05:23:56;-3.67;86.59
65637;DHT22;52327;42.622;23.316;2024-01-10T05:26:24;-3.77;87.69
65637;DHT22;52327;42.622;23.316;2024-01-10T05:28:49;-3.97;87.13
65637;DHT22;52327;42.622;23.316;2024-01-10T05:31:15;-4.04;87.06
65637;DHT22;52327;42.622;23.316;2024-01-10T05:33:40;-3.84;81.77
65637;DHT22;52327;42.622;23.316;2024-01-10T05:36:10;-3.86;86.13
65637;DHT22;52327;42.622;23.316;2024-01-10T05:38:38;-4.05;86.31
65637;DHT22;52327;42.622;23.316;2024-01-10T05:41:05;-3.95;84.56
65637;DHT22;52327;42.622;23.316;2024-01-10T05:43:31;-4.01;86.84
65637;DHT22;52327;42.622;23.316;2024-01-10T05:45:56;-3.87;86.46
65637;DHT22;52327;42.622;23.316;2024-01-10T05:48:22;-3.86;86.58
65637;DHT22;52327;42.622;23.316;2024-01-10T05:50:47;-3.84;85.41
65637;DHT22;52327;42.622;23.316;2024-01-10T05:53:13;-3.90;86.35
65637;DHT22;52327;42.622;23.316;2024-01-10T05:55:45;-3.80;85.57
65637;DHT22;52327;42.622;23.316;2024-01-10T05:58:11;-3.74;86.33
65637;DHT22;52327;42.622;23.316;2024-01-10T06:00:36;-3.93;85.04
65637;DHT22;52327;42.622;23.316;2024-01-10T06:03:02;-4.00;87.65
65637;DHT22;52327;42.622;23.316;2024-01-10T06:05:27;-3.90;87.85
65637;DHT22;52327;42.622;23.316;2024-01-10T06:07:53;-3.86;85.47
65637;DHT22;52327;42.622;23.316;2024-01-10T06:10:18;-3.80;86.09
65637;DHT22;52327;42.622;23.316;2024-01-10T06:12:44;-3.77;85.83
65637;DHT22;52327;42.622;23.316;2024-01-10T06:15:10;-3.79;85.38
65637;DHT22;52327;42.622;23.316;2024-01-10T06:17:35;-3.87;86.44
65637;DHT22;52327;42.622;23.316;2024-01-10T06:20:04;-3.79;86.38
65637;DHT22;52327;42.622;23.316;2024-01-10T06:22:32;-3.98;85.69
65637;DHT22;52327;42.622;23.316;2024-01-10T06:24:57;-4.07;87.12
65637;DHT22;52327;42.622;23.316;2024-01-10T06:27:23;-4.05;87.73
65637;DHT22;52327;42.622;23.316;2024-01-10T06:29:48;-3.97;87.77
65637;DHT22;52327;42.622;23.316;2024-01-10T06:32:14;-3.90;87.30
65637;DHT22;52327;42.622;23.316;2024-01-10T06:34:40;-4.01;86.48
65637;DHT22;52327;42.622;23.316;2024-01-10T06:37:05;-4.02;86.21
65637;DHT22;52327;42.622;23.316;2024-01-10T06:39:33;-4.08;85.94
65637;DHT22;52327;42.622;23.316;2024-01-10T06:41:58;-3.98;87.54
65637;DHT22;52327;42.622;23.316;2024-01-10T06:44:24;-3.91;87.76
65637;DHT22;52327;42.622;23.316;2024-01-10T06:46:50;-3.80;87.89
65637;DHT22;52327;42.622;23.316;2024-01-10T06:49:16;-3.74;88.01
65637;DHT22;52327;42.622;23.316;2024-01-10T06:51:41;-3.69;87.07
65637;DHT22;52327;42.622;23.316;2024-01-10T06:54:07;-3.49;83.66
65637;DHT22;52327;42.622;23.316;2024-01-10T06:56:33;-3.57;86.47
65637;DHT22;52327;42.622;23.316;2024-01-10T06:58:59;-3.67;85.49
65637;DHT22;52327;42.622;23.316;2024-01-10T07:01:26;-3.64;86.31
65637;DHT22;52327;42.622;23.316;2024-01-10T07:03:52;-3.80;86.69
65637;DHT22;52327;42.622;23.316;2024-01-10T07:06:17;-3.67;87.31
65637;DHT22;52327;42.622;23.316;2024-01-10T07:08:44;-3.64;87.04
65637;DHT22;52327;42.622;23.316;2024-01-10T07:11:12;-3.60;86.73
65637;DHT22;52327;42.622;23.316;2024-01-10T07:13:38;-3.59;86.13
65637;DHT22;52327;42.622;23.316;2024-01-10T07:16:03;-3.50;85.12
65637;DHT22;52327;42.622;23.316;2024-01-10T07:18:29;-3.59;85.83
65637;DHT22;52327;42.622;23.316;2024-01-10T07:20:55;-3.60;86.33
65637;DHT22;52327;42.622;23.316;2024-01-10T07:23:21;-3.76;82.94
65637;DHT22;52327;42.622;23.316;2024-01-10T07:25:48;-3.77;84.32
65637;DHT22;52327;42.622;23.316;2024-01-10T07:28:13;-3.97;85.10
65637;DHT22;52327;42.622;23.316;2024-01-10T07:30:39;-3.89;85.39
65637;DHT22;52327;42.622;23.316;2024-01-10T07:33:04;-3.77;83.35
65637;DHT22;52327;42.622;23.316;2024-01-10T07:35:30;-4.01;83.85
65637;DHT22;52327;42.622;23.316;2024-01-10T07:37:56;-3.95;83.40
65637;DHT22;52327;42.622;23.316;2024-01-10T07:40:21;-3.93;85.03
65637;DHT22;52327;42.622;23.316;2024-01-10T07:42:47;-3.76;82.27
65637;DHT22;52327;42.622;23.316;2024-01-10T07:45:13;-3.66;79.79
65637;DHT22;52327;42.622;23.316;2024-01-10T07:47:38;-3.70;80.28
65637;DHT22;52327;42.622;23.316;2024-01-10T07:50:08;-3.84;82.95
65637;DHT22;52327;42.622;23.316;2024-01-10T07:52:33;-3.70;80.46
65637;DHT22;52327;42.622;23.316;2024-01-10T07:54:59;-3.86;82.69
65637;DHT22;52327;42.622;23.316;2024-01-10T07:57:26;-3.89;81.74
65637;DHT22;52327;42.622;23.316;2024-01-10T07:59:52;-3.98;81.31
65637;DHT22;52327;42.622;23.316;2024-01-10T08:02:18;-4.05;80.92
65637;DHT22;52327;42.622;23.316;2024-01-10T08:04:43;-4.18;81.64
65637;DHT22;52327;42.622;23.316;2024-01-10T08:07:09;-4.33;82.23
65637;DHT22;52327;42.622;23.316;2024-01-10T08:09:36;-4.32;83.67
65637;DHT22;52327;42.622;23.316;2024-01-10T08:12:03;-4.26;81.98
65637;DHT22;52327;42.622;23.316;2024-01-10T08:14:29;-4.17;82.41
65637;DHT22;52327;42.622;23.316;2024-01-10T08:16:54;-4.29;82.07
65637;DHT22;52327;42.622;23.316;2024-01-10T08:19:23;-4.36;83.53
65637;DHT22;52327;42.622;23.316;2024-01-10T08:21:49;-4.32;84.92
65637;DHT22;52327;42.622;23.316;2024-01-10T08:24:15;-4.26;83.95
65637;DHT22;52327;42.622;23.316;2024-01-10T08:26:40;-3.93;80.48
65637;DHT22;52327;42.622;23.316;2024-01-10T08:29:06;-4.18;83.24
65637;DHT22;52327;42.622;23.316;2024-01-10T08:31:31;-4.35;83.05
65637;DHT22;52327;42.622;23.316;2024-01-10T08:33:57;-4.17;82.56
65637;DHT22;52327;42.622;23.316;2024-01-10T08:36:22;-4.02;82.86
65637;DHT22;52327;42.622;23.316;2024-01-10T08:38:50;-3.98;81.74
65637;DHT22;52327;42.622;23.316;2024-01-10T08:41:15;-3.90;83.71
65637;DHT22;52327;42.622;23.316;2024-01-10T08:43:41;-3.86;85.42
65637;DHT22;52327;42.622;23.316;2024-01-10T08:46:10;-3.87;83.57
65637;DHT22;52327;42.622;23.316;2024-01-10T08:48:36;-3.76;86.69
65637;DHT22;52327;42.622;23.316;2024-01-10T08:51:02;-3.55;84.67
65637;DHT22;52327;42.622;23.316;2024-01-10T08:53:27;-3.52;81.39
65637;DHT22;52327;42.622;23.316;2024-01-10T08:55:53;-3.55;83.29
65637;DHT22;52327;42.622;23.316;2024-01-10T08:58:19;-3.63;83.45
65637;DHT22;52327;42.622;23.316;2024-01-10T09:00:44;-3.84;82.73
65637;DHT22;52327;42.622;23.316;2024-01-10T09:03:09;-3.84;84.62
65637;DHT22;52327;42.622;23.316;2024-01-10T09:05:35;-3.76;82.84
65637;DHT22;52327;42.622;23.316;2024-01-10T09:08:00;-3.73;82.11
65637;DHT22;52327;42.622;23.316;2024-01-10T09:10:25;-3.69;86.01
65637;DHT22;52327;42.622;23.316;2024-01-10T09:12:53;-3.45;85.26
65637;DHT22;52327;42.622;23.316;2024-01-10T09:15:19;-3.40;84.38
65637;DHT22;52327;42.622;23.316;2024-01-10T09:17:44;-3.45;84.87
65637;DHT22;52327;42.622;23.316;2024-01-10T09:20:11;-3.20;81.55
65637;DHT22;52327;42.622;23.316;2024-01-10T09:22:37;-3.34;82.84
65637;DHT22;52327;42.622;23.316;2024-01-10T09:25:04;-3.29;84.83
65637;DHT22;52327;42.622;23.316;2024-01-10T09:27:31;-3.26;83.93
65637;DHT22;52327;42.622;23.316;2024-01-10T09:30:03;-3.23;83.54
65637;DHT22;52327;42.622;23.316;2024-01-10T09:32:28;-3.42;83.81
65637;DHT22;52327;42.622;23.316;2024-01-10T09:34:55;-3.38;86.47
65637;DHT22;52327;42.622;23.316;2024-01-10T09:37:20;-3.23;86.46
65637;DHT22;52327;42.622;23.316;2024-01-10T09:39:46;-3.22;84.64
65637;DHT22;52327;42.622;23.316;2024-01-10T09:42:11;-3.13;86.30
65637;DHT22;52327;42.622;23.316;2024-01-10T09:44:37;-3.05;86.51
65637;DHT22;52327;42.622;23.316;2024-01-10T09:47:02;-2.84;86.41
65637;DHT22;52327;42.622;23.316;2024-01-10T09:49:28;-2.85;82.06
65637;DHT22;52327;42.622;23.316;2024-01-10T09:51:58;-2.83;83.87
65637;DHT22;52327;42.622;23.316;2024-01-10T09:54:29;-2.83;86.48
65637;DHT22;52327;42.622;23.316;2024-01-10T09:56:55;-2.74;86.54
65637;DHT22;52327;42.622;23.316;2024-01-10T09:59:21;-2.60;86.95
65637;DHT22;52327;42.622;23.316;2024-01-10T10:01:46;-2.50;86.88
65637;DHT22;52327;42.622;23.316;2024-01-10T10:04:12;-2.37;81.69
65637;DHT22;52327;42.622;23.316;2024-01-10T10:06:39;-2.25;83.36
65637;DHT22;52327;42.622;23.316;2024-01-10T10:09:06;-2.34;86.08
65637;DHT22;52327;42.622;23.316;2024-01-10T10:11:32;-2.42;84.72
65637;DHT22;52327;42.622;23.316;2024-01-10T10:14:14;-2.32;87.18
65637;DHT22;52327;42.622;23.316;2024-01-10T10:16:40;-1.89;81.92
65637;DHT22;52327;42.622;23.316;2024-01-10T10:19:06;-1.98;86.85
65637;DHT22;52327;42.622;23.316;2024-01-10T10:21:31;-1.60;82.09
65637;DHT22;52327;42.622;23.316;2024-01-10T10:24:00;-1.48;82.90
65637;DHT22;52327;42.622;23.316;2024-01-10T10:26:28;-1.43;84.76
65637;DHT22;52327;42.622;23.316;2024-01-10T10:28:57;-1.44;87.33
65637;DHT22;52327;42.622;23.316;2024-01-10T10:31:23;-1.46;86.98
65637;DHT22;52327;42.622;23.316;2024-01-10T10:33:49;-1.44;86.56
65637;DHT22;52327;42.622;23.316;2024-01-10T10:36:18;-1.52;85.42
65637;DHT22;52327;42.622;23.316;2024-01-10T10:38:46;-1.58;85.37
65637;DHT22;52327;42.622;23.316;2024-01-10T10:41:13;-1.57;87.20
65637;DHT22;52327;42.622;23.316;2024-01-10T10:43:39;-1.52;86.22
65637;DHT22;52327;42.622;23.316;2024-01-10T10:46:06;-1.60;85.99
65637;DHT22;52327;42.622;23.316;2024-01-10T10:48:38;-1.41;87.00
65637;DHT22;52327;42.622;23.316;2024-01-10T10:51:04;-1.19;85.21
65637;DHT22;52327;42.622;23.316;2024-01-10T10:53:37;-1.03;84.64
65637;DHT22;52327;42.622;23.316;2024-01-10T10:56:06;-0.88;85.15
65637;DHT22;52327;42.622;23.316;2024-01-10T10:58:35;-0.92;84.79
65637;DHT22;52327;42.622;23.316;2024-01-10T11:01:21;-0.96;86.87
65637;DHT22;52327;42.622;23.316;2024-01-10T11:03:48;-0.99;86.24
65637;DHT22;52327;42.622;23.316;2024-01-10T11:06:14;-0.90;85.05
65637;DHT22;52327;42.622;23.316;2024-01-10T11:08:43;-0.88;85.89
65637;DHT22;52327;42.622;23.316;2024-01-10T11:25:06;-0.58;85.49
65637;DHT22;52327;42.622;23.316;2024-01-10T11:27:32;-0.66;85.49
65637;DHT22;52327;42.622;23.316;2024-01-10T11:29:57;-0.68;87.00
65637;DHT22;52327;42.622;23.316;2024-01-10T11:32:24;-0.62;86.30
65637;DHT22;52327;42.622;23.316;2024-01-10T11:37:18;-0.51;86.11
65637;DHT22;52327;42.622;23.316;2024-01-10T11:39:44;-0.41;84.65
65637;DHT22;52327;42.622;23.316;2024-01-10T11:42:09;-0.29;83.79
65637;DHT22;52327;42.622;23.316;2024-01-10T11:44:46;-0.35;84.60
65637;DHT22;52327;42.622;23.316;2024-01-10T11:47:13;-0.38;85.59
65637;DHT22;52327;42.622;23.316;2024-01-10T11:49:40;-0.58;84.34
65637;DHT22;52327;42.622;23.316;2024-01-10T11:52:06;-0.49;86.59
65637;DHT22;52327;42.622;23.316;2024-01-10T11:54:42;-0.35;86.55
65637;DHT22;52327;42.622;23.316;2024-01-10T11:57:20;-0.44;86.36
65637;DHT22;52327;42.622;23.316;2024-01-10T11:59:50;-0.65;86.58
65637;DHT22;52327;42.622;23.316;2024-01-10T12:02:15;-0.65;86.34
65637;DHT22;52327;42.622;23.316;2024-01-10T12:04:42;-0.70;86.58
65637;DHT22;52327;42.622;23.316;2024-01-10T12:07:08;-0.66;82.58
65637;DHT22;52327;42.622;23.316;2024-01-10T12:09:34;-0.59;85.09
65637;DHT22;52327;42.622;23.316;2024-01-10T12:12:01;-0.76;83.60
65637;DHT22;52327;42.622;23.316;2024-01-10T12:14:27;-0.76;87.14
65637;DHT22;52327;42.622;23.316;2024-01-10T12:16:54;-0.73;86.54
65637;DHT22;52327;42.622;23.316;2024-01-10T12:19:19;-0.75;86.46
65637;DHT22;52327;42.622;23.316;2024-01-10T12:21:44;-0.76;87.32
65637;DHT22;52327;42.622;23.316;2024-01-10T12:24:10;-0.69;87.80
65637;DHT22;52327;42.622;23.316;2024-01-10T12:26:35;-0.54;87.22
65637;DHT22;52327;42.622;23.316;2024-01-10T12:29:01;-0.58;87.65
65637;DHT22;52327;42.622;23.316;2024-01-10T12:31:31;-0.59;86.98
65637;DHT22;52327;42.622;23.316;2024-01-10T12:33:58;-0.59;87.44
65637;DHT22;52327;42.622;23.316;2024-01-10T12:36:24;-0.68;84.75
65637;DHT22;52327;42.622;23.316;2024-01-10T12:38:50;-0.78;83.43
65637;DHT22;52327;42.622;23.316;2024-01-10T12:41:17;-0.93;84.87
65637;DHT22;52327;42.622;23.316;2024-01-10T12:43:42;-0.96;86.88
65637;DHT22;52327;42.622;23.316;2024-01-10T12:46:11;-0.97;82.82
65637;DHT22;52327;42.622;23.316;2024-01-10T12:48:38;-1.13;84.80
65637;DHT22;52327;42.622;23.316;2024-01-10T12:51:07;-1.00;84.16
65637;DHT22;52327;42.622;23.316;2024-01-10T12:53:43;-1.04;83.63
65637;DHT22;52327;42.622;23.316;2024-01-10T12:56:10;-1.16;85.13
65637;DHT22;52327;42.622;23.316;2024-01-10T12:58:40;-1.13;85.80
65637;DHT22;52327;42.622;23.316;2024-01-10T13:01:08;-0.90;78.58
65637;DHT22;52327;42.622;23.316;2024-01-10T13:03:34;-0.89;78.70
65637;DHT22;52327;42.622;23.316;2024-01-10T13:06:00;-0.97;75.65
65637;DHT22;52327;42.622;23.316;2024-01-10T13:08:26;-1.01;79.21
65637;DHT22;52327;42.622;23.316;2024-01-10T13:10:52;-0.99;76.11
65637;DHT22;52327;42.622;23.316;2024-01-10T13:13:19;-0.99;78.05
65637;DHT22;52327;42.622;23.316;2024-01-10T13:15:47;-1.09;78.22
65637;DHT22;52327;42.622;23.316;2024-01-10T13:18:12;-1.10;84.29
65637;DHT22;52327;42.622;23.316;2024-01-10T13:20:42;-0.92;85.21
65637;DHT22;52327;42.622;23.316;2024-01-10T13:23:08;-0.82;83.18
65637;DHT22;52327;42.622;23.316;2024-01-10T13:25:37;-0.90;85.89
65637;DHT22;52327;42.622;23.316;2024-01-10T13:28:04;-0.93;86.59
65637;DHT22;52327;42.622;23.316;2024-01-10T13:30:29;-0.78;83.80
65637;DHT22;52327;42.622;23.316;2024-01-10T13:32:55;-0.83;86.37
65637;DHT22;52327;42.622;23.316;2024-01-10T13:35:20;-0.85;86.45
65637;DHT22;52327;42.622;23.316;2024-01-10T13:37:47;-0.76;84.80
65637;DHT22;52327;42.622;23.316;2024-01-10T13:40:12;-0.85;85.89
65637;DHT22;52327;42.622;23.316;2024-01-10T13:42:42;-0.82;86.15
65637;DHT22;52327;42.622;23.316;2024-01-10T13:45:08;-0.86;87.38
65637;DHT22;52327;42.622;23.316;2024-01-10T13:47:36;-0.88;87.32
65637;DHT22;52327;42.622;23.316;2024-01-10T13:50:02;-0.82;87.03
65637;DHT22;52327;42.622;23.316;2024-01-10T13:52:29;-0.79;86.94
65637;DHT22;52327;42.622;23.316;2024-01-10T13:54:54;-0.73;84.46
65637;DHT22;52327;42.622;23.316;2024-01-10T13:57:21;-0.78;83.22
65637;DHT22;52327;42.622;23.316;2024-01-10T13:59:46;-0.86;85.02
65637;DHT22;52327;42.622;23.316;2024-01-10T14:02:13;-0.90;86.37
65637;DHT22;52327;42.622;23.316;2024-01-10T14:04:39;-1.03;87.37
65637;DHT22;52327;42.622;23.316;2024-01-10T14:07:04;-1.07;87.21
65637;DHT22;52327;42.622;23.316;2024-01-10T14:09:30;-1.00;86.06
65637;DHT22;52327;42.622;23.316;2024-01-10T14:11:56;-1.07;87.32
65637;DHT22;52327;42.622;23.316;2024-01-10T14:14:22;-1.10;86.98
65637;DHT22;52327;42.622;23.316;2024-01-10T14:16:47;-1.13;87.85
65637;DHT22;52327;42.622;23.316;2024-01-10T14:19:13;-1.14;88.01
65637;DHT22;52327;42.622;23.316;2024-01-10T14:21:38;-1.09;85.66
65637;DHT22;52327;42.622;23.316;2024-01-10T14:24:04;-1.11;85.71
65637;DHT22;52327;42.622;23.316;2024-01-10T14:26:29;-1.03;83.67
65637;DHT22;52327;42.622;23.316;2024-01-10T14:28:54;-1.21;87.26
65637;DHT22;52327;42.622;23.316;2024-01-10T14:31:22;-1.34;87.84
65637;DHT22;52327;42.622;23.316;2024-01-10T14:33:48;-1.27;85.60
65637;DHT22;52327;42.622;23.316;2024-01-10T14:36:13;-1.31;85.73
65637;DHT22;52327;42.622;23.316;2024-01-10T14:38:39;-1.39;87.07
65637;DHT22;52327;42.622;23.316;2024-01-10T14:41:05;-1.40;85.30
65637;DHT22;52327;42.622;23.316;2024-01-10T14:43:31;-1.37;86.93
65637;DHT22;52327;42.622;23.316;2024-01-10T14:45:57;-1.33;86.32
65637;DHT22;52327;42.622;23.316;2024-01-10T14:48:22;-1.31;83.00
65637;DHT22;52327;42.622;23.316;2024-01-10T14:50:48;-1.37;85.02
65637;DHT22;52327;42.622;23.316;2024-01-10T14:53:13;-1.27;80.99
65637;DHT22;52327;42.622;23.316;2024-01-10T14:55:39;-1.50;84.67
65637;DHT22;52327;42.622;23.316;2024-01-10T14:58:04;-1.46;83.74
65637;DHT22;52327;42.622;23.316;2024-01-10T15:00:29;-1.52;84.57
65637;DHT22;52327;42.622;23.316;2024-01-10T15:02:55;-1.57;86.43
65637;DHT22;52327;42.622;23.316;2024-01-10T15:05:20;-1.54;85.33
65637;DHT22;52327;42.622;23.316;2024-01-10T15:07:47;-1.52;84.73
65637;DHT22;52327;42.622;23.316;2024-01-10T15:10:13;-1.55;83.76
65637;DHT22;52327;42.622;23.316;2024-01-10T15:12:38;-1.64;84.97
65637;DHT22;52327;42.622;23.316;2024-01-10T15:15:04;-1.70;85.78
65637;DHT22;52327;42.622;23.316;2024-01-10T15:17:33;-1.72;86.97
65637;DHT22;52327;42.622;23.316;2024-01-10T15:19:58;-1.71;85.91
65637;DHT22;52327;42.622;23.316;2024-01-10T15:22:24;-1.71;87.63
65637;DHT22;52327;42.622;23.316;2024-01-10T15:24:51;-1.72;85.98
65637;DHT22;52327;42.622;23.316;2024-01-10T15:27:16;-1.75;87.39